sensor_id;sensor_type;location;lat;lon;timestamp;temperature;humidity
27376;DHT22;14844;51.302;6.354;2022-11-24T00:01:38;7.50;99.90
27376;DHT22;14844;51.302;6.354;2022-11-24T00:04:05;7.50;99.90
27376;DHT22;14844;51.302;6.354;2022-11-24T00:06:33;7.40;99.90
27376;DHT22;14844;51.302;6.354;2022-11-24T00:09:00;7.40;99.90
27376;DHT22;14844;51.302;6.354;2022-11-24T00:11:28;7.50;99.90
27376;DHT22;14844;51.302;6.354;2022-11-24T00:13:54;7.50;99.90
27376;DHT22;14844;51.302;6.354;2022-11-24T00:16:23;7.50;99.90
27376;DHT22;14844;51.302;6.354;2022-11-24T00:18:51;7.50;99.90
27376;DHT22;14844;51.302;6.354;2022-11-24T00:21:17;7.40;99.90
27376;DHT22;14844;51.302;6.354;2022-11-24T00:23:44;7.40;99.90
27376;DHT22;14844;51.302;6.354;2022-11-24T00:26:18;7.40;99.90
27376;DHT22;14844;51.302;6.354;2022-11-24T00:28:45;7.40;99.90
27376;DHT22;14844;51.302;6.354;2022-11-24T00:31:37;7.50;99.90
27376;DHT22;14844;51.302;6.354;2022-11-24T00:34:04;7.40;99.90
27376;DHT22;14844;51.302;6.354;2022-11-24T00:36:31;7.40;99.90
27376;DHT22;14844;51.302;6.354;2022-11-24T00:39:03;7.40;99.90
27376;DHT22;14844;51.302;6.354;2022-11-24T00:41:29;7.30;99.90
27376;DHT22;14844;51.302;6.354;2022-11-24T00:43:56;7.30;99.90
27376;DHT22;14844;51.302;6.354;2022-11-24T00:46:22;7.30;99.90
27376;DHT22;14844;51.302;6.354;2022-11-24T00:48:48;7.30;99.90
27376;DHT22;14844;51.302;6.354;2022-11-24T00:51:15;7.30;99.90
27376;DHT22;14844;51.302;6.354;2022-11-24T00:53:41;7.30;99.90
27376;DHT22;14844;51.302;6.354;2022-11-24T00:56:07;7.40;99.90
27376;DHT22;14844;51.302;6.354;2022-11-24T00:58:33;7.40;99.90
27376;DHT22;14844;51.302;6.354;2022-11-24T01:01:08;7.60;99.90
27376;DHT22;14844;51.302;6.354;2022-11-24T01:03:34;7.70;99.90
27376;DHT22;14844;51.302;6.354;2022-11-24T01:06:06;7.80;99.90
27376;DHT22;14844;51.302;6.354;2022-11-24T01:08:32;7.80;99.90
27376;DHT22;14844;51.302;6.354;2022-11-24T01:11:25;7.90;99.90
27376;DHT22;14844;51.302;6.354;2022-11-24T01:13:54;8.00;99.90
27376;DHT22;14844;51.302;6.354;2022-11-24T01:16:23;7.90;99.90
27376;DHT22;14844;51.302;6.354;2022-11-24T01:18:50;7.90;99.90
27376;DHT22;14844;51.302;6.354;2022-11-24T01:21:17;7.80;99.90
27376;DHT22;14844;51.302;6.354;2022-11-24T01:23:43;7.90;99.90
27376;DHT22;14844;51.302;6.354;2022-11-24T01:26:11;7.80;99.90
27376;DHT22;14844;51.302;6.354;2022-11-24T01:28:37;7.80;99.90
27376;DHT22;14844;51.302;6.354;2022-11-24T01:31:05;7.70;99.90
27376;DHT22;14844;51.302;6.354;2022-11-24T01:33:32;7.70;99.90
27376;DHT22;14844;51.302;6.354;2022-11-24T01:35:58;7.60;99.90
27376;DHT22;14844;51.302;6.354;2022-11-24T01:38:25;7.60;99.90
27376;DHT22;14844;51.302;6.354;2022-11-24T01:41:10;7.60;99.90
27376;DHT22;14844;51.302;6.354;2022-11-24T01:43:36;7.60;99.90
27376;DHT22;14844;51.302;6.354;2022-11-24T01:46:10;7.60;99.90
27376;DHT22;14844;51.302;6.354;2022-11-24T01:48:42;7.60;99.90
27376;DHT22;14844;51.302;6.354;2022-11-24T01:51:12;7.70;99.90
27376;DHT22;14844;51.302;6.354;2022-11-24T01:53:41;7.60;99.90
27376;DHT22;14844;51.302;6.354;2022-11-24T01:56:09;7.50;99.90
27376;DHT22;14844;51.302;6.354;2022-11-24T01:58:35;7.50;99.90
27376;DHT22;14844;51.302;6.354;2022-11-24T02:01:02;7.50;99.90
27376;DHT22;14844;51.302;6.354;2022-11-24T02:03:31;7.40;99.90
27376;DHT22;14844;51.302;6.354;2022-11-24T02:06:10;7.50;99.90
27376;DHT22;14844;51.302;6.354;2022-11-24T02:08:45;7.60;99.90
27376;DHT22;14844;51.302;6.354;2022-11-24T02:11:12;7.60;99.90
27376;DHT22;14844;51.302;6.354;2022-11-24T02:13:38;7.70;99.90
27376;DHT22;14844;51.302;6.354;2022-11-24T02:16:08;7.70;99.90
27376;DHT22;14844;51.302;6.354;2022-11-24T02:18:36;7.80;99.90
27376;DHT22;14844;51.302;6.354;2022-11-24T02:21:03;7.80;99.90
27376;DHT22;14844;51.302;6.354;2022-11-24T02:23:43;8.00;99.90
27376;DHT22;14844;51.302;6.354;2022-11-24T02:26:38;8.10;99.90
27376;DHT22;14844;51.302;6.354;2022-11-24T02:29:05;8.20;99.90
27376;DHT22;14844;51.302;6.354;2022-11-24T02:31:31;8.20;99.90
27376;DHT22;14844;51.302;6.354;2022-11-24T02:33:57;8.20;99.90
27376;DHT22;14844;51.302;6.354;2022-11-24T02:36:23;8.20;99.90
27376;DHT22;14844;51.302;6.354;2022-11-24T02:38:48;8.20;99.90
27376;DHT22;14844;51.302;6.354;2022-11-24T02:41:17;8.20;99.90
27376;DHT22;14844;51.302;6.354;2022-11-24T02:43:54;8.10;99.90
27376;DHT22;14844;51.302;6.354;2022-11-24T02:46:20;8.10;99.90
27376;DHT22;14844;51.302;6.354;2022-11-24T02:48:45;8.10;99.90
27376;DHT22;14844;51.302;6.354;2022-11-24T02:51:11;8.00;99.90
27376;DHT22;14844;51.302;6.354;2022-11-24T02:53:36;8.10;99.90
27376;DHT22;14844;51.302;6.354;2022-11-24T02:56:02;8.10;99.90
27376;DHT22;14844;51.302;6.354;2022-11-24T02:58:27;8.10;99.90
27376;DHT22;14844;51.302;6.354;2022-11-24T03:00:53;8.10;99.90
27376;DHT22;14844;51.302;6.354;2022-11-24T03:03:20;8.10;99.90
27376;DHT22;14844;51.302;6.354;2022-11-24T03:05:45;8.00;99.90
27376;DHT22;14844;51.302;6.354;2022-11-24T03:08:11;8.00;99.90
27376;DHT22;14844;51.302;6.354;2022-11-24T03:10:37;8.10;99.90
27376;DHT22;14844;51.302;6.354;2022-11-24T03:13:03;8.10;99.90
27376;DHT22;14844;51.302;6.354;2022-11-24T03:15:29;8.20;99.90
27376;DHT22;14844;51.302;6.354;2022-11-24T03:17:54;8.30;99.90
27376;DHT22;14844;51.302;6.354;2022-11-24T03:20:21;8.40;99.90
27376;DHT22;14844;51.302;6.354;2022-11-24T03:22:47;8.40;99.90
27376;DHT22;14844;51.302;6.354;2022-11-24T03:25:12;8.50;99.90
27376;DHT22;14844;51.302;6.354;2022-11-24T03:27:38;8.60;99.90
27376;DHT22;14844;51.302;6.354;2022-11-24T03:30:03;8.60;99.90
27376;DHT22;14844;51.302;6.354;2022-11-24T03:32:29;8.60;99.90
27376;DHT22;14844;51.302;6.354;2022-11-24T03:34:55;8.60;99.90
27376;DHT22;14844;51.302;6.354;2022-11-24T03:37:20;8.60;99.90
27376;DHT22;14844;51.302;6.354;2022-11-24T03:39:46;8.60;99.90
27376;DHT22;14844;51.302;6.354;2022-11-24T03:42:12;8.60;99.90
27376;DHT22;14844;51.302;6.354;2022-11-24T03:44:37;8.70;99.90
27376;DHT22;14844;51.302;6.354;2022-11-24T03:47:03;8.70;99.90
27376;DHT22;14844;51.302;6.354;2022-11-24T03:49:28;8.70;99.90
27376;DHT22;14844;51.302;6.354;2022-11-24T03:51:54;8.80;99.90
27376;DHT22;14844;51.302;6.354;2022-11-24T03:54:20;8.80;99.90
27376;DHT22;14844;51.302;6.354;2022-11-24T03:56:45;8.90;99.90
27376;DHT22;14844;51.302;6.354;2022-11-24T03:59:11;8.90;99.90
27376;DHT22;14844;51.302;6.354;2022-11-24T04:01:37;8.80;99.90
27376;DHT22;14844;51.302;6.354;2022-11-24T04:04:02;8.80;99.90
27376;DHT22;14844;51.302;6.354;2022-11-24T04:06:28;8.80;99.90
27376;DHT22;14844;51.302;6.354;2022-11-24T04:08:54;8.80;99.90
27376;DHT22;14844;51.302;6.354;2022-11-24T04:11:19;8.70;99.90
27376;DHT22;14844;51.302;6.354;2022-11-24T04:14:03;8.80;99.90
27376;DHT22;14844;51.302;6.354;2022-11-24T04:16:29;8.70;99.90
27376;DHT22;14844;51.302;6.354;2022-11-24T04:18:54;8.80;99.90
27376;DHT22;14844;51.302;6.354;2022-11-24T04:21:20;8.80;99.90
27376;DHT22;14844;51.302;6.354;2022-11-24T04:23:46;8.70;99.90
27376;DHT22;14844;51.302;6.354;2022-11-24T04:26:12;8.70;99.90
27376;DHT22;14844;51.302;6.354;2022-11-24T04:28:37;8.70;99.90
27376;DHT22;14844;51.302;6.354;2022-11-24T04:31:04;8.80;99.90
27376;DHT22;14844;51.302;6.354;2022-11-24T04:33:30;8.80;99.90
27376;DHT22;14844;51.302;6.354;2022-11-24T04:35:55;8.80;99.90
27376;DHT22;14844;51.302;6.354;2022-11-24T04:38:21;8.70;99.90
27376;DHT22;14844;51.302;6.354;2022-11-24T04:40:47;8.80;99.90
27376;DHT22;14844;51.302;6.354;2022-11-24T04:43:12;8.80;99.90
27376;DHT22;14844;51.302;6.354;2022-11-24T04:45:38;8.80;99.90
27376;DHT22;14844;51.302;6.354;2022-11-24T04:48:04;8.80;99.90
27376;DHT22;14844;51.302;6.354;2022-11-24T04:50:29;8.70;99.90
27376;DHT22;14844;51.302;6.354;2022-11-24T04:52:55;8.70;99.90
27376;DHT22;14844;51.302;6.354;2022-11-24T04:55:21;8.70;99.90
27376;DHT22;14844;51.302;6.354;2022-11-24T04:57:46;8.80;99.90
27376;DHT22;14844;51.302;6.354;2022-11-24T05:00:12;8.80;99.90
27376;DHT22;14844;51.302;6.354;2022-11-24T05:02:38;8.80;99.90
27376;DHT22;14844;51.302;6.354;2022-11-24T05:05:05;8.80;99.90
27376;DHT22;14844;51.302;6.354;2022-11-24T05:07:31;8.80;99.90
27376;DHT22;14844;51.302;6.354;2022-11-24T05:09:56;8.80;99.90
27376;DHT22;14844;51.302;6.354;2022-11-24T05:12:41;8.80;99.90
27376;DHT22;14844;51.302;6.354;2022-11-24T05:15:06;8.90;99.90
27376;DHT22;14844;51.302;6.354;2022-11-24T05:17:37;8.80;99.90
27376;DHT22;14844;51.302;6.354;2022-11-24T05:20:04;8.70;99.90
27376;DHT22;14844;51.302;6.354;2022-11-24T05:22:30;8.70;99.90
27376;DHT22;14844;51.302;6.354;2022-11-24T05:24:56;8.70;99.90
27376;DHT22;14844;51.302;6.354;2022-11-24T05:27:22;8.60;99.90
27376;DHT22;14844;51.302;6.354;2022-11-24T05:29:49;8.60;99.90
27376;DHT22;14844;51.302;6.354;2022-11-24T05:32:14;8.50;99.90
27376;DHT22;14844;51.302;6.354;2022-11-24T05:34:40;8.50;99.90
27376;DHT22;14844;51.302;6.354;2022-11-24T05:37:06;8.50;99.90
27376;DHT22;14844;51.302;6.354;2022-11-24T05:39:33;8.50;99.90
27376;DHT22;14844;51.302;6.354;2022-11-24T05:42:00;8.50;99.90
27376;DHT22;14844;51.302;6.354;2022-11-24T05:44:46;8.50;99.90
27376;DHT22;14844;51.302;6.354;2022-11-24T05:47:12;8.50;99.90
27376;DHT22;14844;51.302;6.354;2022-11-24T05:49:37;8.50;99.90
27376;DHT22;14844;51.302;6.354;2022-11-24T05:52:03;8.40;99.90
27376;DHT22;14844;51.302;6.354;2022-11-24T05:54:29;8.40;99.90
27376;DHT22;14844;51.302;6.354;2022-11-24T05:56:55;8.40;99.90
27376;DHT22;14844;51.302;6.354;2022-11-24T05:59:20;8.40;99.90
27376;DHT22;14844;51.302;6.354;2022-11-24T06:01:46;8.30;99.90
27376;DHT22;14844;51.302;6.354;2022-11-24T06:04:12;8.20;99.90
27376;DHT22;14844;51.302;6.354;2022-11-24T06:06:37;8.20;99.90
27376;DHT22;14844;51.302;6.354;2022-11-24T06:09:03;8.10;99.90
27376;DHT22;14844;51.302;6.354;2022-11-24T06:11:29;8.10;99.90
27376;DHT22;14844;51.302;6.354;2022-11-24T06:13:54;8.10;99.90
27376;DHT22;14844;51.302;6.354;2022-11-24T06:16:20;8.10;99.90
27376;DHT22;14844;51.302;6.354;2022-11-24T06:18:46;8.10;99.90
27376;DHT22;14844;51.302;6.354;2022-11-24T06:21:11;8.00;99.90
27376;DHT22;14844;51.302;6.354;2022-11-24T06:23:37;8.00;99.90
27376;DHT22;14844;51.302;6.354;2022-11-24T06:26:03;8.00;99.90
27376;DHT22;14844;51.302;6.354;2022-11-24T06:28:28;7.90;99.90
27376;DHT22;14844;51.302;6.354;2022-11-24T06:30:54;7.90;99.90
27376;DHT22;14844;51.302;6.354;2022-11-24T06:33:19;7.80;99.90
27376;DHT22;14844;51.302;6.354;2022-11-24T06:35:45;7.90;99.90
27376;DHT22;14844;51.302;6.354;2022-11-24T06:38:11;7.90;99.90
27376;DHT22;14844;51.302;6.354;2022-11-24T06:40:36;8.00;99.90
27376;DHT22;14844;51.302;6.354;2022-11-24T06:43:02;8.00;99.90
27376;DHT22;14844;51.302;6.354;2022-11-24T06:45:27;7.90;99.90
27376;DHT22;14844;51.302;6.354;2022-11-24T06:47:53;7.90;99.90
27376;DHT22;14844;51.302;6.354;2022-11-24T06:50:19;7.90;99.90
27376;DHT22;14844;51.302;6.354;2022-11-24T06:52:45;8.00;99.90
27376;DHT22;14844;51.302;6.354;2022-11-24T06:55:11;8.10;99.90
27376;DHT22;14844;51.302;6.354;2022-11-24T06:57:36;8.20;99.90
27376;DHT22;14844;51.302;6.354;2022-11-24T07:00:06;8.30;99.90
27376;DHT22;14844;51.302;6.354;2022-11-24T07:02:32;8.40;99.90
27376;DHT22;14844;51.302;6.354;2022-11-24T07:04:58;8.40;99.90
27376;DHT22;14844;51.302;6.354;2022-11-24T07:07:23;8.40;99.90
27376;DHT22;14844;51.302;6.354;2022-11-24T07:09:49;8.40;99.90
27376;DHT22;14844;51.302;6.354;2022-11-24T07:12:15;8.40;99.90
27376;DHT22;14844;51.302;6.354;2022-11-24T07:14:40;8.50;99.90
27376;DHT22;14844;51.302;6.354;2022-11-24T07:17:06;8.50;99.90
27376;DHT22;14844;51.302;6.354;2022-11-24T07:19:32;8.50;99.90
27376;DHT22;14844;51.302;6.354;2022-11-24T07:21:58;8.50;99.90
27376;DHT22;14844;51.302;6.354;2022-11-24T07:24:23;8.50;99.90
27376;DHT22;14844;51.302;6.354;2022-11-24T07:26:49;8.50;99.90
27376;DHT22;14844;51.302;6.354;2022-11-24T07:29:14;8.60;99.90
27376;DHT22;14844;51.302;6.354;2022-11-24T07:31:40;8.60;99.90
27376;DHT22;14844;51.302;6.354;2022-11-24T07:34:06;8.60;99.90
27376;DHT22;14844;51.302;6.354;2022-11-24T07:36:32;8.60;99.90
27376;DHT22;14844;51.302;6.354;2022-11-24T07:38:57;8.60;99.90
27376;DHT22;14844;51.302;6.354;2022-11-24T07:41:23;8.60;99.90
27376;DHT22;14844;51.302;6.354;2022-11-24T07:43:49;8.60;99.90
27376;DHT22;14844;51.302;6.354;2022-11-24T07:46:17;8.60;99.90
27376;DHT22;14844;51.302;6.354;2022-11-24T07:48:43;8.70;99.90
27376;DHT22;14844;51.302;6.354;2022-11-24T07:51:09;8.70;99.90
27376;DHT22;14844;51.302;6.354;2022-11-24T07:53:34;8.70;99.90
27376;DHT22;14844;51.302;6.354;2022-11-24T07:56:01;8.70;99.90
27376;DHT22;14844;51.302;6.354;2022-11-24T07:58:28;8.80;99.90
27376;DHT22;14844;51.302;6.354;2022-11-24T08:00:54;8.80;99.90
27376;DHT22;14844;51.302;6.354;2022-11-24T08:03:20;8.80;99.90
27376;DHT22;14844;51.302;6.354;2022-11-24T08:05:53;8.80;99.90
27376;DHT22;14844;51.302;6.354;2022-11-24T08:08:19;8.80;99.90
27376;DHT22;14844;51.302;6.354;2022-11-24T08:10:45;8.70;99.90
27376;DHT22;14844;51.302;6.354;2022-11-24T08:13:10;8.70;99.90
27376;DHT22;14844;51.302;6.354;2022-11-24T08:15:36;8.70;99.90
27376;DHT22;14844;51.302;6.354;2022-11-24T08:18:01;8.70;99.90
27376;DHT22;14844;51.302;6.354;2022-11-24T08:20:27;8.70;99.90
27376;DHT22;14844;51.302;6.354;2022-11-24T08:22:56;8.60;99.90
27376;DHT22;14844;51.302;6.354;2022-11-24T08:25:22;8.60;99.90
27376;DHT22;14844;51.302;6.354;2022-11-24T08:27:49;8.60;99.90
27376;DHT22;14844;51.302;6.354;2022-11-24T08:30:15;8.70;99.90
27376;DHT22;14844;51.302;6.354;2022-11-24T08:32:40;8.70;99.90
27376;DHT22;14844;51.302;6.354;2022-11-24T08:35:06;8.60;99.90
27376;DHT22;14844;51.302;6.354;2022-11-24T08:37:32;8.70;99.90
27376;DHT22;14844;51.302;6.354;2022-11-24T08:39:58;8.80;99.90
27376;DHT22;14844;51.302;6.354;2022-11-24T08:42:23;8.80;99.90
27376;DHT22;14844;51.302;6.354;2022-11-24T08:44:49;8.90;99.90
27376;DHT22;14844;51.302;6.354;2022-11-24T08:47:14;9.00;99.90
27376;DHT22;14844;51.302;6.354;2022-11-24T08:49:40;9.00;99.90
27376;DHT22;14844;51.302;6.354;2022-11-24T08:52:05;8.90;99.90
27376;DHT22;14844;51.302;6.354;2022-11-24T08:54:31;8.90;99.90
27376;DHT22;14844;51.302;6.354;2022-11-24T08:56:56;8.70;99.90
27376;DHT22;14844;51.302;6.354;2022-11-24T08:59:22;8.80;99.90
27376;DHT22;14844;51.302;6.354;2022-11-24T09:01:47;8.80;99.90
27376;DHT22;14844;51.302;6.354;2022-11-24T09:04:13;8.90;99.90
27376;DHT22;14844;51.302;6.354;2022-11-24T09:06:39;9.00;99.90
27376;DHT22;14844;51.302;6.354;2022-11-24T09:09:04;9.10;99.90
27376;DHT22;14844;51.302;6.354;2022-11-24T09:11:32;9.20;99.90
27376;DHT22;14844;51.302;6.354;2022-11-24T09:13:59;9.30;99.90
27376;DHT22;14844;51.302;6.354;2022-11-24T09:16:27;9.30;99.90
27376;DHT22;14844;51.302;6.354;2022-11-24T09:19:00;9.40;99.90
27376;DHT22;14844;51.302;6.354;2022-11-24T09:21:27;9.50;99.90
27376;DHT22;14844;51.302;6.354;2022-11-24T09:23:53;9.40;99.90
27376;DHT22;14844;51.302;6.354;2022-11-24T09:26:22;9.40;99.90
27376;DHT22;14844;51.302;6.354;2022-11-24T09:28:49;9.40;99.90
27376;DHT22;14844;51.302;6.354;2022-11-24T09:31:19;9.60;99.90
27376;DHT22;14844;51.302;6.354;2022-11-24T09:33:44;9.70;99.90
27376;DHT22;14844;51.302;6.354;2022-11-24T09:36:14;9.70;99.90
27376;DHT22;14844;51.302;6.354;2022-11-24T09:38:46;9.70;99.90
27376;DHT22;14844;51.302;6.354;2022-11-24T09:44:07;9.90;99.90
27376;DHT22;14844;51.302;6.354;2022-11-24T09:49:29;10.10;99.90
27376;DHT22;14844;51.302;6.354;2022-11-24T09:51:57;9.90;99.90
27376;DHT22;14844;51.302;6.354;2022-11-24T09:54:28;10.00;99.90
27376;DHT22;14844;51.302;6.354;2022-11-24T09:56:57;10.10;99.90
27376;DHT22;14844;51.302;6.354;2022-11-24T09:59:24;10.10;99.90
27376;DHT22;14844;51.302;6.354;2022-11-24T10:01:52;10.10;99.90
27376;DHT22;14844;51.302;6.354;2022-11-24T10:04:28;10.20;99.90
27376;DHT22;14844;51.302;6.354;2022-11-24T10:12:19;10.40;99.90
27376;DHT22;14844;51.302;6.354;2022-11-24T10:15:16;10.50;99.90
27376;DHT22;14844;51.302;6.354;2022-11-24T10:25:49;10.50;99.90
27376;DHT22;14844;51.302;6.354;2022-11-24T10:28:15;10.60;99.90
27376;DHT22;14844;51.302;6.354;2022-11-24T10:30:41;10.60;99.90
27376;DHT22;14844;51.302;6.354;2022-11-24T10:33:16;10.70;99.90
27376;DHT22;14844;51.302;6.354;2022-11-24T10:35:49;10.70;99.90
27376;DHT22;14844;51.302;6.354;2022-11-24T10:38:25;10.80;99.90
27376;DHT22;14844;51.302;6.354;2022-11-24T10:41:19;10.80;99.90
27376;DHT22;14844;51.302;6.354;2022-11-24T10:43:43;10.90;99.90
27376;DHT22;14844;51.302;6.354;2022-11-24T10:46:20;11.00;99.90
27376;DHT22;14844;51.302;6.354;2022-11-24T10:48:51;11.00;99.90
27376;DHT22;14844;51.302;6.354;2022-11-24T10:51:35;11.10;99.90
27376;DHT22;14844;51.302;6.354;2022-11-24T10:54:16;11.20;99.90
27376;DHT22;14844;51.302;6.354;2022-11-24T10:56:44;11.30;99.90
27376;DHT22;14844;51.302;6.354;2022-11-24T11:01:50;11.30;99.90
27376;DHT22;14844;51.302;6.354;2022-11-24T11:04:29;11.40;99.90
27376;DHT22;14844;51.302;6.354;2022-11-24T11:09:34;11.50;99.90
27376;DHT22;14844;51.302;6.354;2022-11-24T11:12:09;11.50;99.90
27376;DHT22;14844;51.302;6.354;2022-11-24T11:14:35;11.50;99.90
27376;DHT22;14844;51.302;6.354;2022-11-24T11:17:02;11.40;99.90
27376;DHT22;14844;51.302;6.354;2022-11-24T11:19:40;11.40;99.90
27376;DHT22;14844;51.302;6.354;2022-11-24T11:24:39;11.70;99.90
27376;DHT22;14844;51.302;6.354;2022-11-24T11:27:25;11.70;99.90
27376;DHT22;14844;51.302;6.354;2022-11-24T11:29:52;11.60;99.90
27376;DHT22;14844;51.302;6.354;2022-11-24T11:32:25;11.70;99.90
27376;DHT22;14844;51.302;6.354;2022-11-24T11:34:53;11.70;99.90
27376;DHT22;14844;51.302;6.354;2022-11-24T11:37:21;11.70;99.90
27376;DHT22;14844;51.302;6.354;2022-11-24T11:39:52;11.80;99.90
27376;DHT22;14844;51.302;6.354;2022-11-24T11:42:34;11.90;99.90
27376;DHT22;14844;51.302;6.354;2022-11-24T11:45:56;12.00;99.90
27376;DHT22;14844;51.302;6.354;2022-11-24T12:01:16;12.30;99.90
27376;DHT22;14844;51.302;6.354;2022-11-24T12:04:20;12.40;99.90
27376;DHT22;14844;51.302;6.354;2022-11-24T12:06:55;12.40;99.90
27376;DHT22;14844;51.302;6.354;2022-11-24T12:15:10;12.70;99.90
27376;DHT22;14844;51.302;6.354;2022-11-24T12:17:56;12.70;99.90
27376;DHT22;14844;51.302;6.354;2022-11-24T12:20:39;12.80;99.90
27376;DHT22;14844;51.302;6.354;2022-11-24T12:23:19;12.90;99.90
27376;DHT22;14844;51.302;6.354;2022-11-24T12:28:45;12.80;99.90
27376;DHT22;14844;51.302;6.354;2022-11-24T12:31:27;12.70;99.90
27376;DHT22;14844;51.302;6.354;2022-11-24T12:34:15;12.60;99.90
27376;DHT22;14844;51.302;6.354;2022-11-24T12:37:00;12.70;99.90
27376;DHT22;14844;51.302;6.354;2022-11-24T12:42:34;12.70;99.90
27376;DHT22;14844;51.302;6.354;2022-11-24T12:45:10;12.80;99.90
27376;DHT22;14844;51.302;6.354;2022-11-24T12:50:24;12.90;99.90
27376;DHT22;14844;51.302;6.354;2022-11-24T12:52:58;12.80;99.90
27376;DHT22;14844;51.302;6.354;2022-11-24T12:55:27;12.70;99.90
27376;DHT22;14844;51.302;6.354;2022-11-24T13:01:06;12.60;99.90
27376;DHT22;14844;51.302;6.354;2022-11-24T13:08:40;12.60;99.90
27376;DHT22;14844;51.302;6.354;2022-11-24T13:13:59;12.60;99.90
27376;DHT22;14844;51.302;6.354;2022-11-24T13:16:27;12.60;99.90
27376;DHT22;14844;51.302;6.354;2022-11-24T13:19:12;12.70;99.90
27376;DHT22;14844;51.302;6.354;2022-11-24T13:24:32;12.50;99.90
27376;DHT22;14844;51.302;6.354;2022-11-24T13:29:52;12.40;99.90
27376;DHT22;14844;51.302;6.354;2022-11-24T13:53:28;12.20;99.90
27376;DHT22;14844;51.302;6.354;2022-11-24T13:56:01;12.20;99.90
27376;DHT22;14844;51.302;6.354;2022-11-24T13:58:37;12.10;99.90
27376;DHT22;14844;51.302;6.354;2022-11-24T14:01:22;12.10;99.90
27376;DHT22;14844;51.302;6.354;2022-11-24T14:09:32;12.00;99.90
27376;DHT22;14844;51.302;6.354;2022-11-24T14:12:23;11.90;99.90
27376;DHT22;14844;51.302;6.354;2022-11-24T14:14:51;11.90;99.90
27376;DHT22;14844;51.302;6.354;2022-11-24T14:17:27;11.80;99.90
27376;DHT22;14844;51.302;6.354;2022-11-24T14:19:54;11.70;99.90
27376;DHT22;14844;51.302;6.354;2022-11-24T14:22:23;11.70;99.90
27376;DHT22;14844;51.302;6.354;2022-11-24T14:24:58;11.60;99.90
27376;DHT22;14844;51.302;6.354;2022-11-24T14:27:30;11.50;99.90
27376;DHT22;14844;51.302;6.354;2022-11-24T14:30:02;11.40;99.90
27376;DHT22;14844;51.302;6.354;2022-11-24T14:32:28;11.30;99.90
27376;DHT22;14844;51.302;6.354;2022-11-24T14:34:53;11.30;99.90
27376;DHT22;14844;51.302;6.354;2022-11-24T14:37:20;11.20;99.90
27376;DHT22;14844;51.302;6.354;2022-11-24T14:39:46;11.10;99.90
27376;DHT22;14844;51.302;6.354;2022-11-24T14:42:25;11.10;99.90
27376;DHT22;14844;51.302;6.354;2022-11-24T14:44:59;11.00;99.90
27376;DHT22;14844;51.302;6.354;2022-11-24T14:47:31;10.80;99.90
27376;DHT22;14844;51.302;6.354;2022-11-24T14:50:09;10.70;99.90
27376;DHT22;14844;51.302;6.354;2022-11-24T14:52:51;10.60;99.90
27376;DHT22;14844;51.302;6.354;2022-11-24T14:55:36;10.40;99.90
27376;DHT22;14844;51.302;6.354;2022-11-24T14:58:28;10.30;99.90
27376;DHT22;14844;51.302;6.354;2022-11-24T15:06:43;9.80;99.90
27376;DHT22;14844;51.302;6.354;2022-11-24T15:09:20;9.70;99.90
27376;DHT22;14844;51.302;6.354;2022-11-24T15:11:46;9.60;99.90
27376;DHT22;14844;51.302;6.354;2022-11-24T15:14:35;9.40;99.90
27376;DHT22;14844;51.302;6.354;2022-11-24T15:17:03;9.30;99.90
27376;DHT22;14844;51.302;6.354;2022-11-24T15:19:33;9.20;99.90
27376;DHT22;14844;51.302;6.354;2022-11-24T15:22:00;9.10;99.90
27376;DHT22;14844;51.302;6.354;2022-11-24T15:24:50;9.00;99.90
27376;DHT22;14844;51.302;6.354;2022-11-24T15:27:17;8.90;99.90
27376;DHT22;14844;51.302;6.354;2022-11-24T15:29:42;8.80;99.90
27376;DHT22;14844;51.302;6.354;2022-11-24T15:32:13;8.70;99.90
27376;DHT22;14844;51.302;6.354;2022-11-24T15:34:39;8.60;99.90
27376;DHT22;14844;51.302;6.354;2022-11-24T15:37:06;8.50;99.90
27376;DHT22;14844;51.302;6.354;2022-11-24T15:39:32;8.40;99.90
27376;DHT22;14844;51.302;6.354;2022-11-24T15:41:57;8.30;99.90
27376;DHT22;14844;51.302;6.354;2022-11-24T15:44:23;8.20;99.90
27376;DHT22;14844;51.302;6.354;2022-11-24T15:46:49;8.00;99.90
27376;DHT22;14844;51.302;6.354;2022-11-24T15:49:14;8.00;99.90
27376;DHT22;14844;51.302;6.354;2022-11-24T15:51:42;7.90;99.90
27376;DHT22;14844;51.302;6.354;2022-11-24T15:54:11;7.90;99.90
27376;DHT22;14844;51.302;6.354;2022-11-24T15:56:38;7.90;99.90
27376;DHT22;14844;51.302;6.354;2022-11-24T15:59:12;7.90;99.90
27376;DHT22;14844;51.302;6.354;2022-11-24T16:01:37;7.90;99.90
27376;DHT22;14844;51.302;6.354;2022-11-24T16:04:03;7.90;99.90
27376;DHT22;14844;51.302;6.354;2022-11-24T16:06:29;7.80;99.90
27376;DHT22;14844;51.302;6.354;2022-11-24T16:08:55;7.80;99.90
27376;DHT22;14844;51.302;6.354;2022-11-24T16:11:22;7.90;99.90
27376;DHT22;14844;51.302;6.354;2022-11-24T16:13:48;7.90;99.90
27376;DHT22;14844;51.302;6.354;2022-11-24T16:16:15;7.80;99.90
27376;DHT22;14844;51.302;6.354;2022-11-24T16:18:41;7.70;99.90
27376;DHT22;14844;51.302;6.354;2022-11-24T16:21:09;7.60;99.90
27376;DHT22;14844;51.302;6.354;2022-11-24T16:23:35;7.60;99.90
27376;DHT22;14844;51.302;6.354;2022-11-24T16:26:02;7.60;99.90
27376;DHT22;14844;51.302;6.354;2022-11-24T16:28:28;7.50;99.90
27376;DHT22;14844;51.302;6.354;2022-11-24T16:30:54;7.40;99.90
27376;DHT22;14844;51.302;6.354;2022-11-24T16:33:20;7.40;99.90
27376;DHT22;14844;51.302;6.354;2022-11-24T16:35:46;7.30;99.90
27376;DHT22;14844;51.302;6.354;2022-11-24T16:38:19;7.30;99.90
27376;DHT22;14844;51.302;6.354;2022-11-24T16:40:52;7.30;99.90
27376;DHT22;14844;51.302;6.354;2022-11-24T16:43:18;7.30;99.90
27376;DHT22;14844;51.302;6.354;2022-11-24T16:45:44;7.20;99.90
27376;DHT22;14844;51.302;6.354;2022-11-24T16:48:10;7.20;99.90
27376;DHT22;14844;51.302;6.354;2022-11-24T16:50:36;7.20;99.90
27376;DHT22;14844;51.302;6.354;2022-11-24T16:53:01;7.20;99.90
27376;DHT22;14844;51.302;6.354;2022-11-24T16:55:27;7.20;99.90
27376;DHT22;14844;51.302;6.354;2022-11-24T16:57:53;7.20;99.90
27376;DHT22;14844;51.302;6.354;2022-11-24T17:00:18;7.20;99.90
27376;DHT22;14844;51.302;6.354;2022-11-24T17:02:44;7.10;99.90
27376;DHT22;14844;51.302;6.354;2022-11-24T17:05:10;7.00;99.90
27376;DHT22;14844;51.302;6.354;2022-11-24T17:07:36;6.90;99.90
27376;DHT22;14844;51.302;6.354;2022-11-24T17:10:02;6.90;99.90
27376;DHT22;14844;51.302;6.354;2022-11-24T17:12:27;6.90;99.90
27376;DHT22;14844;51.302;6.354;2022-11-24T17:14:53;6.90;99.90
27376;DHT22;14844;51.302;6.354;2022-11-24T17:17:20;7.00;99.90
27376;DHT22;14844;51.302;6.354;2022-11-24T17:19:45;7.00;99.90
27376;DHT22;14844;51.302;6.354;2022-11-24T17:22:11;7.00;99.90
27376;DHT22;14844;51.302;6.354;2022-11-24T17:24:37;7.00;99.90
27376;DHT22;14844;51.302;6.354;2022-11-24T17:27:02;7.00;99.90
27376;DHT22;14844;51.302;6.354;2022-11-24T17:29:28;7.00;99.90
27376;DHT22;14844;51.302;6.354;2022-11-24T17:31:54;7.10;99.90
27376;DHT22;14844;51.302;6.354;2022-11-24T17:34:19;7.00;99.90
27376;DHT22;14844;51.302;6.354;2022-11-24T17:36:45;7.10;99.90